Terminal Aerodrome Forecast
Issued by NWS

Home | Current Version | Previous Version | Graphics & Text | Print | Product List | Glossary On
Versions: 1 2 3 4 5 6 7 8 9 10 11 12 13 14
000
FTUS43 KTOP 080535
TAFMHK
TAF
KMHK 080535Z 0806/0906 30013G20KT P6SM BKN100
     FM081300 32016G26KT P6SM SCT050 BKN110
     FM081700 32023G34KT P6SM SCT025 SCT050
     FM090000 33012G20KT P6SM SCT200=

USA.gov is the U.S. government's official web portal to all federal, state and local government web resources and services.